createdAt,value
2018-09-01T00:01:31.965Z,2.80
2018-09-01T00:04:01.314Z,2.70
2018-09-01T00:06:31.265Z,2.40
2018-09-01T00:09:01.109Z,2.60
2018-09-01T00:11:30.498Z,2.53
2018-09-01T00:13:59.766Z,2.90
2018-09-01T00:16:29.526Z,2.27
2018-09-01T00:18:58.082Z,2.37
2018-09-01T00:21:27.652Z,2.50
2018-09-01T00:23:58.365Z,2.33
2018-09-01T00:26:27.578Z,2.67
2018-09-01T00:28:57.862Z,2.80
2018-09-01T00:31:27.093Z,2.47
2018-09-01T00:33:56.833Z,2.87
2018-09-01T00:36:26.521Z,2.20
2018-09-01T00:39:01.965Z,2.47
2018-09-01T00:41:32.347Z,2.43
2018-09-01T00:44:01.482Z,2.40
2018-09-01T00:46:30.026Z,2.57
2018-09-01T00:48:59.619Z,2.43
2018-09-01T00:51:28.793Z,2.70
2018-09-01T00:53:57.684Z,2.77
2018-09-01T00:56:26.547Z,2.53
2018-09-01T00:58:56.093Z,2.33
2018-09-01T01:01:25.437Z,2.60
2018-09-01T01:03:54.059Z,2.67
2018-09-01T01:06:22.589Z,2.40
2018-09-01T01:08:52.089Z,2.20
2018-09-01T01:11:20.564Z,2.30
2018-09-01T01:13:50.066Z,2.33
2018-09-01T01:16:18.599Z,2.27
2018-09-01T01:18:47.859Z,2.37
2018-09-01T01:21:18.099Z,2.30
2018-09-01T01:23:48.442Z,2.70
2018-09-01T01:26:17.625Z,2.10
2018-09-01T01:28:47.423Z,2.40
2018-09-01T01:31:17.568Z,2.70
2018-09-01T01:33:48.268Z,2.43
2018-09-01T01:36:16.743Z,2.20
2018-09-01T01:38:45.266Z,2.40
2018-09-01T01:41:13.765Z,2.43
2018-09-01T01:43:42.274Z,2.80
2018-09-01T01:46:10.832Z,2.70
2018-09-01T01:48:39.332Z,2.57
2018-09-01T01:51:08.052Z,2.30
2018-09-01T01:53:36.561Z,2.40
2018-09-01T01:56:06.891Z,2.70
2018-09-01T01:58:35.597Z,2.83
2018-09-01T02:01:04.479Z,3.37
2018-09-01T02:03:33.185Z,2.30
2018-09-01T02:06:01.717Z,2.80
2018-09-01T02:08:30.190Z,2.60
2018-09-01T02:10:58.715Z,2.63
2018-09-01T02:13:27.299Z,2.50
2018-09-01T02:15:56.346Z,2.50
2018-09-01T02:18:29.897Z,2.50
2018-09-01T02:20:59.272Z,2.67
2018-09-01T02:23:28.445Z,2.53
2018-09-01T02:25:58.365Z,2.67
2018-09-01T02:28:29.374Z,2.43
2018-09-01T02:30:58.900Z,2.67
2018-09-01T02:33:28.204Z,2.57
2018-09-01T02:35:57.062Z,2.47
2018-09-01T02:38:28.293Z,2.47
2018-09-01T02:40:57.579Z,2.80
2018-09-01T02:43:27.210Z,3.03
2018-09-01T02:45:56.462Z,2.30
2018-09-01T02:48:26.003Z,2.63
2018-09-01T02:51:58.189Z,2.47
2018-09-01T02:54:27.855Z,2.53
2018-09-01T02:56:58.017Z,2.10
2018-09-01T02:59:28.536Z,2.47
2018-09-01T03:02:02.840Z,2.50
2018-09-01T03:04:31.324Z,3.00
2018-09-01T03:07:00.953Z,2.20
2018-09-01T03:09:41.986Z,2.50
2018-09-01T03:12:11.402Z,2.83
2018-09-01T03:14:39.898Z,2.87
2018-09-01T03:17:09.280Z,2.93
2018-09-01T03:19:38.584Z,2.60
2018-09-01T03:22:08.046Z,2.90
2018-09-01T03:24:36.641Z,2.67
2018-09-01T03:27:06.291Z,2.80
2018-09-01T03:29:35.491Z,2.90
2018-09-01T03:32:04.345Z,2.93
2018-09-01T03:34:33.958Z,2.93
2018-09-01T03:37:02.469Z,3.20
2018-09-01T03:39:30.958Z,3.10
2018-09-01T03:42:00.592Z,2.83
2018-09-01T03:44:29.967Z,3.33
2018-09-01T03:46:58.695Z,3.47
2018-09-01T03:49:27.838Z,3.27
2018-09-01T03:51:59.278Z,3.80
2018-09-01T03:54:27.763Z,3.90
2018-09-01T03:56:56.600Z,3.20
2018-09-01T03:59:25.157Z,3.30
2018-09-01T04:01:53.808Z,3.00
2018-09-01T04:04:22.591Z,3.30
2018-09-01T04:06:52.813Z,3.00
2018-09-01T04:09:21.366Z,3.20
2018-09-01T04:14:26.725Z,3.27
2018-09-01T04:16:56.474Z,3.50
2018-09-01T04:19:26.306Z,3.33
2018-09-01T04:21:55.965Z,3.50
2018-09-01T04:24:25.156Z,3.73
2018-09-01T04:26:54.193Z,3.40
2018-09-01T04:29:22.702Z,3.80
2018-09-01T04:31:51.884Z,3.13
2018-09-01T04:34:21.619Z,3.50
2018-09-01T04:36:50.669Z,3.97
2018-09-01T04:39:19.871Z,3.57
2018-09-01T04:41:50.041Z,3.43
2018-09-01T04:47:01.900Z,3.20
2018-09-01T04:49:31.364Z,3.80
2018-09-01T04:51:59.885Z,3.50
2018-09-01T04:54:28.368Z,3.80
2018-09-01T04:56:58.193Z,3.57
2018-09-01T04:59:27.133Z,4.10
2018-09-01T05:01:55.650Z,3.77
2018-09-01T05:04:24.988Z,3.67
2018-09-01T05:06:58.144Z,3.33
2018-09-01T05:09:27.650Z,3.33
2018-09-01T05:11:57.004Z,3.63
2018-09-01T05:14:26.709Z,3.70
2018-09-01T05:16:55.294Z,3.30
2018-09-01T05:19:24.284Z,3.60
2018-09-01T05:21:54.293Z,3.40
2018-09-01T05:24:24.170Z,3.73
2018-09-01T05:26:54.602Z,3.70
2018-09-01T05:29:23.116Z,3.50
2018-09-01T05:31:52.326Z,3.50
2018-09-01T05:34:22.012Z,4.00
2018-09-01T05:36:50.759Z,3.90
2018-09-01T05:39:20.473Z,4.17
2018-09-01T05:41:50.101Z,3.63
2018-09-01T05:44:18.701Z,3.80
2018-09-01T05:46:48.982Z,3.60
2018-09-01T05:49:18.322Z,3.83
2018-09-01T05:51:48.836Z,3.33
2018-09-01T05:54:18.191Z,4.00
2018-09-01T05:56:50.017Z,3.70
2018-09-01T05:59:19.476Z,3.53
2018-09-01T06:01:49.138Z,3.50
2018-09-01T06:04:17.986Z,3.77
2018-09-01T06:06:46.790Z,3.83
2018-09-01T06:09:16.221Z,3.83
2018-09-01T06:11:45.658Z,3.63
2018-09-01T06:14:14.432Z,3.50
2018-09-01T06:16:44.768Z,3.80
2018-09-01T06:19:13.829Z,3.10
2018-09-01T06:21:43.007Z,3.40
2018-09-01T06:24:12.329Z,3.37
2018-09-01T06:51:07.993Z,3.40
2018-09-01T06:53:36.532Z,3.60
2018-09-01T06:56:06.023Z,3.10
2018-09-01T06:58:35.765Z,3.57
2018-09-01T07:01:07.169Z,3.80
2018-09-01T07:03:36.646Z,3.23
2018-09-01T07:06:06.326Z,3.70
2018-09-01T07:08:36.838Z,3.63
2018-09-01T07:11:17.594Z,3.17
2018-09-01T07:13:48.113Z,3.13
2018-09-01T07:16:16.611Z,3.37
2018-09-01T07:18:46.067Z,3.73
2018-09-01T07:21:18.979Z,3.27
2018-09-01T07:23:49.553Z,3.90
2018-09-01T07:26:19.746Z,3.60
2018-09-01T07:28:48.756Z,3.37
2018-09-01T07:31:24.741Z,3.00
2018-09-01T07:33:53.613Z,3.60
2018-09-01T07:36:23.504Z,3.20
2018-09-01T07:38:55.081Z,3.40
2018-09-01T07:41:25.583Z,3.50
2018-09-01T07:43:54.503Z,3.70
2018-09-01T07:46:24.539Z,2.93
2018-09-01T07:48:54.923Z,3.07
2018-09-01T07:51:25.865Z,2.97
2018-09-01T07:53:55.285Z,3.00
2018-09-01T07:56:24.224Z,3.60
2018-09-01T07:58:54.996Z,4.27
2018-09-01T08:01:25.274Z,3.83
2018-09-01T08:03:55.419Z,3.70
2018-09-01T08:06:24.418Z,3.60
2018-09-01T08:08:53.669Z,3.70
2018-09-01T08:11:23.149Z,3.27
2018-09-01T08:13:53.338Z,3.80
2018-09-01T08:16:22.614Z,3.80
2018-09-01T08:18:52.247Z,3.87
2018-09-01T08:21:44.162Z,4.03
2018-09-01T08:24:12.670Z,3.47
2018-09-01T08:26:41.172Z,3.30
2018-09-01T08:29:09.694Z,3.33
2018-09-01T08:31:41.505Z,3.80
2018-09-01T08:34:10.476Z,3.53
2018-09-01T08:36:41.757Z,3.93
2018-09-01T08:39:11.541Z,4.10
2018-09-01T08:41:54.945Z,3.63
2018-09-01T08:44:23.761Z,3.47
2018-09-01T08:46:54.326Z,3.03
2018-09-01T08:49:24.098Z,3.87
2018-09-01T08:52:04.410Z,3.80
2018-09-01T08:54:33.867Z,4.10
2018-09-01T08:57:03.838Z,2.40
2018-09-01T08:59:32.402Z,3.03
2018-09-01T09:02:02.486Z,2.80
2018-09-01T09:04:32.299Z,3.43
2018-09-01T09:07:01.358Z,3.60
2018-09-01T09:09:30.893Z,3.70
2018-09-01T09:12:11.600Z,3.80
2018-09-01T09:14:40.657Z,3.63
2018-09-01T09:17:09.877Z,4.07
2018-09-01T09:19:40.013Z,3.63
2018-09-01T09:22:14.898Z,4.23
2018-09-01T09:24:43.639Z,6.43
2018-09-01T09:27:12.576Z,4.60
2018-09-01T09:29:41.347Z,3.30
2018-09-01T09:32:12.849Z,3.07
2018-09-01T09:34:41.482Z,3.20
2018-09-01T09:37:11.074Z,2.83
2018-09-01T09:39:40.397Z,3.07
2018-09-01T09:42:10.041Z,3.00
2018-09-01T09:44:38.870Z,2.70
2018-09-01T09:47:07.885Z,2.80
2018-09-01T09:49:37.806Z,3.10
2018-09-01T09:52:07.041Z,3.50
2018-09-01T09:54:36.508Z,2.87
2018-09-01T09:57:06.233Z,3.20
2018-09-01T09:59:36.081Z,3.33
2018-09-01T10:02:05.503Z,2.93
2018-09-01T10:04:34.609Z,2.80
2018-09-01T10:07:03.721Z,3.33
2018-09-01T10:09:33.019Z,2.83
2018-09-01T10:12:02.229Z,2.73
2018-09-01T10:14:31.353Z,3.07
2018-09-01T10:17:00.240Z,2.30
2018-09-01T10:19:29.748Z,3.07
2018-09-01T10:21:58.514Z,2.47
2018-09-01T10:24:28.265Z,2.40
2018-09-01T10:26:57.688Z,2.53
2018-09-01T10:29:26.742Z,2.60
2018-09-01T10:31:58.214Z,2.00
2018-09-01T10:34:26.715Z,2.67
2018-09-01T10:36:56.977Z,2.13
2018-09-01T10:39:26.375Z,2.57
2018-09-01T10:41:55.954Z,2.30
2018-09-01T10:44:25.189Z,2.57
2018-09-01T10:46:54.393Z,2.07
2018-09-01T10:49:23.964Z,2.77
2018-09-01T10:51:52.645Z,2.40
2018-09-01T10:54:22.242Z,2.20
2018-09-01T10:56:51.416Z,2.27
2018-09-01T10:59:20.767Z,2.80
2018-09-01T11:01:49.666Z,2.70
2018-09-01T11:04:20.782Z,1.87
2018-09-01T11:06:51.104Z,1.97
2018-09-01T11:09:21.057Z,2.10
2018-09-01T11:11:50.765Z,2.60
2018-09-01T11:14:27.300Z,2.53
2018-09-01T11:16:55.936Z,2.57
2018-09-01T11:19:26.141Z,2.13
2018-09-01T11:21:56.090Z,2.17
2018-09-01T11:24:35.882Z,2.30
2018-09-01T11:27:04.958Z,2.40
2018-09-01T11:29:33.447Z,1.87
2018-09-01T11:32:03.193Z,2.10
2018-09-01T11:34:32.689Z,1.90
2018-09-01T11:37:02.695Z,2.27
2018-09-01T11:39:31.194Z,2.23
2018-09-01T11:42:00.855Z,2.07
2018-09-01T11:44:29.475Z,2.07
2018-09-01T11:47:00.467Z,2.00
2018-09-01T11:49:29.071Z,1.90
2018-09-01T11:51:58.965Z,1.90
2018-09-01T11:54:28.999Z,2.00
2018-09-01T11:56:57.842Z,1.83
2018-09-01T11:59:26.957Z,2.03
2018-09-01T12:01:55.860Z,2.07
2018-09-01T12:04:24.387Z,2.43
2018-09-01T12:06:52.914Z,2.60
2018-09-01T12:09:21.515Z,1.93
2018-09-01T12:11:51.607Z,1.80
2018-09-01T12:14:21.071Z,2.30
2018-09-01T12:16:49.866Z,2.30
2018-09-01T12:19:18.402Z,2.07
2018-09-01T12:21:47.795Z,2.30
2018-09-01T12:24:17.137Z,2.00
2018-09-01T12:26:45.945Z,1.47
2018-09-01T12:29:15.213Z,1.83
2018-09-01T12:31:43.743Z,1.97
2018-09-01T12:34:13.528Z,1.77
2018-09-01T12:36:42.031Z,1.80
2018-09-01T12:39:11.032Z,2.03
2018-09-01T12:41:40.567Z,2.20
2018-09-01T12:44:09.569Z,1.90
2018-09-01T12:46:38.809Z,1.93
2018-09-01T12:49:08.978Z,2.00
2018-09-01T12:51:37.706Z,1.77
2018-09-01T12:54:06.287Z,1.73
2018-09-01T12:56:35.105Z,2.33
2018-09-01T12:59:04.057Z,1.70
2018-09-01T13:01:33.004Z,2.00
2018-09-01T13:04:01.546Z,2.43
2018-09-01T13:06:30.381Z,1.70
2018-09-01T13:08:58.932Z,1.83
2018-09-01T13:11:27.467Z,1.97
2018-09-01T13:13:56.527Z,1.53
2018-09-01T13:16:26.233Z,1.73
2018-09-01T13:18:55.329Z,2.10
2018-09-01T13:21:24.417Z,1.90
2018-09-01T13:23:53.320Z,1.40
2018-09-01T13:26:22.070Z,1.53
2018-09-01T13:28:50.961Z,1.67
2018-09-01T13:31:20.837Z,2.10
2018-09-01T13:33:50.722Z,1.60
2018-09-01T13:36:19.230Z,1.80
2018-09-01T13:38:47.830Z,1.80
2018-09-01T13:41:16.305Z,1.77
2018-09-01T13:43:45.602Z,2.33
2018-09-01T13:46:14.821Z,1.70
2018-09-01T13:48:43.626Z,1.80
2018-09-01T13:51:12.169Z,1.90
2018-09-01T13:53:42.102Z,2.00
2018-09-01T13:56:11.002Z,2.00
2018-09-01T13:58:40.142Z,1.77
2018-09-01T14:01:08.888Z,1.70
2018-09-01T14:03:38.109Z,1.70
2018-09-01T14:06:07.401Z,1.90
2018-09-01T14:08:35.922Z,1.57
2018-09-01T14:11:04.449Z,2.10
2018-09-01T14:13:39.661Z,1.60
2018-09-01T14:16:08.428Z,1.80
2018-09-01T14:18:37.609Z,1.90
2018-09-01T14:21:07.587Z,1.50
2018-09-01T14:23:41.637Z,1.80
2018-09-01T14:26:10.145Z,1.77
2018-09-01T14:28:38.623Z,1.53
2018-09-01T14:31:07.138Z,1.73
2018-09-01T14:33:35.962Z,1.50
2018-09-01T14:36:05.728Z,1.90
2018-09-01T14:38:34.299Z,1.37
2018-09-01T14:41:02.777Z,1.60
2018-09-01T14:43:31.284Z,1.63
2018-09-01T14:45:59.798Z,1.60
2018-09-01T14:48:28.296Z,1.50
2018-09-01T14:50:56.830Z,1.63
2018-09-01T14:53:25.393Z,1.83
2018-09-01T14:55:53.853Z,1.40
2018-09-01T14:58:22.437Z,1.60
2018-09-01T15:00:50.930Z,1.43
2018-09-01T15:03:20.496Z,1.43
2018-09-01T15:05:50.393Z,1.77
2018-09-01T15:08:27.199Z,1.83
2018-09-01T15:10:55.956Z,1.70
2018-09-01T15:13:27.701Z,1.50
2018-09-01T15:15:56.255Z,1.60
2018-09-01T15:18:25.464Z,1.60
2018-09-01T15:20:54.349Z,1.63
2018-09-01T15:23:23.833Z,1.70
2018-09-01T15:25:53.924Z,1.40
2018-09-01T15:31:03.306Z,1.80
2018-09-01T15:33:32.226Z,1.43
2018-09-01T15:36:01.712Z,1.60
2018-09-01T15:38:40.173Z,1.83
2018-09-01T15:41:09.037Z,1.43
2018-09-01T15:43:37.523Z,1.70
2018-09-01T15:46:06.038Z,1.60
2018-09-01T15:48:34.522Z,1.40
2018-09-01T15:51:03.049Z,1.43
2018-09-01T15:53:31.547Z,1.50
2018-09-01T15:56:00.059Z,1.70
2018-09-01T15:58:28.759Z,1.57
2018-09-01T16:00:59.869Z,1.40
2018-09-01T16:03:28.393Z,1.30
2018-09-01T16:05:57.173Z,1.73
2018-09-01T16:08:25.737Z,1.53
2018-09-01T16:10:54.903Z,1.60
2018-09-01T16:13:23.660Z,1.70
2018-09-01T16:15:52.757Z,1.47
2018-09-01T16:18:22.903Z,1.47
2018-09-01T16:20:51.661Z,1.50
2018-09-01T16:23:20.433Z,1.67
2018-09-01T16:25:49.003Z,2.00
2018-09-01T16:28:18.486Z,1.57
2018-09-01T16:30:49.523Z,1.80
2018-09-01T16:33:19.043Z,1.57
2018-09-01T16:35:48.405Z,1.87
2018-09-01T16:38:17.124Z,1.60
2018-09-01T16:40:46.480Z,1.87
2018-09-01T16:43:16.386Z,1.17
2018-09-01T16:46:02.487Z,1.57
2018-09-01T16:48:35.883Z,1.47
2018-09-01T16:51:08.489Z,1.60
2018-09-01T16:53:42.463Z,1.50
2018-09-01T16:56:11.003Z,1.70
2018-09-01T16:59:01.840Z,1.37
2018-09-01T17:01:41.734Z,1.13
2018-09-01T17:04:22.892Z,1.47
2018-09-01T17:06:52.445Z,1.57
2018-09-01T17:09:21.952Z,1.80
2018-09-01T17:11:51.662Z,1.20
2018-09-01T17:14:21.959Z,1.53
2018-09-01T17:16:51.501Z,1.77
2018-09-01T17:19:21.422Z,1.80
2018-09-01T17:21:50.273Z,1.43
2018-09-01T17:24:19.107Z,1.50
2018-09-01T17:26:48.307Z,1.60
2018-09-01T17:29:17.215Z,1.10
2018-09-01T17:31:46.199Z,1.17
2018-09-01T17:34:16.525Z,1.53
2018-09-01T17:36:45.424Z,1.53
2018-09-01T17:39:14.809Z,1.23
2018-09-01T17:41:45.023Z,1.40
2018-09-01T17:44:13.517Z,1.80
2018-09-01T17:46:42.069Z,1.43
2018-09-01T17:49:10.695Z,1.50
2018-09-01T17:51:39.587Z,1.43
2018-09-01T17:54:10.113Z,1.40
2018-09-01T17:56:38.856Z,1.37
2018-09-01T17:59:07.326Z,1.40
2018-09-01T18:01:35.942Z,1.50
2018-09-01T18:04:04.477Z,1.57
2018-09-01T18:06:45.749Z,1.63
2018-09-01T18:09:15.238Z,1.50
2018-09-01T18:11:44.685Z,1.40
2018-09-01T18:14:14.839Z,1.50
2018-09-01T18:16:46.648Z,1.20
2018-09-01T18:19:16.868Z,1.50
2018-09-01T18:21:46.356Z,1.60
2018-09-01T18:24:16.211Z,1.47
2018-09-01T18:26:45.628Z,1.30
2018-09-01T18:29:19.063Z,1.40
2018-09-01T18:31:49.150Z,1.50
2018-09-01T18:34:26.953Z,1.27
2018-09-01T18:36:56.024Z,1.43
2018-09-01T18:39:43.562Z,1.50
2018-09-01T18:42:12.757Z,1.40
2018-09-01T18:44:43.854Z,1.10
2018-09-01T18:47:17.629Z,1.63
2018-09-01T18:49:47.145Z,1.30
2018-09-01T18:52:15.754Z,1.30
2018-09-01T18:54:50.810Z,1.20
2018-09-01T18:57:20.350Z,1.50
2018-09-01T18:59:48.966Z,1.73
2018-09-01T19:02:21.364Z,1.40
2018-09-01T19:05:02.322Z,1.47
2018-09-01T19:07:41.437Z,1.53
2018-09-01T19:10:11.064Z,1.33
2018-09-01T19:12:39.589Z,1.57
2018-09-01T19:15:08.959Z,1.30
2018-09-01T19:17:37.767Z,1.47
2018-09-01T19:20:06.282Z,1.50
2018-09-01T19:22:35.359Z,1.20
2018-09-01T19:25:04.360Z,1.23
2018-09-01T19:27:39.749Z,1.43
2018-09-01T19:30:08.555Z,1.30
2018-09-01T19:32:37.471Z,1.17
2018-09-01T19:35:06.591Z,1.30
2018-09-01T19:37:35.796Z,1.17
2018-09-01T19:40:05.322Z,1.47
2018-09-01T19:42:35.945Z,1.10
2018-09-01T19:45:04.589Z,1.30
2018-09-01T19:47:33.140Z,1.13
2018-09-01T19:50:02.158Z,1.47
2018-09-01T19:52:31.410Z,1.50
2018-09-01T19:54:59.983Z,1.17
2018-09-01T19:57:29.278Z,1.30
2018-09-01T19:59:57.837Z,1.30
2018-09-01T20:02:26.798Z,1.17
2018-09-01T20:04:55.966Z,1.23
2018-09-01T20:07:25.224Z,1.70
2018-09-01T20:09:55.196Z,1.30
2018-09-01T20:12:23.741Z,1.50
2018-09-01T20:14:52.857Z,1.50
2018-09-01T20:17:21.724Z,1.30
2018-09-01T20:19:50.521Z,1.53
2018-09-01T20:22:20.357Z,1.23
2018-09-01T20:24:50.509Z,1.60
2018-09-01T20:27:19.061Z,1.30
2018-09-01T20:29:48.594Z,1.30
2018-09-01T20:32:19.628Z,1.20
2018-09-01T20:34:48.664Z,1.30
2018-09-01T20:37:18.508Z,1.40
2018-09-01T20:39:47.642Z,1.20
2018-09-01T20:42:29.860Z,1.00
2018-09-01T20:44:58.694Z,1.43
2018-09-01T20:47:27.652Z,1.23
2018-09-01T20:49:56.298Z,1.30
2018-09-01T20:52:25.575Z,1.17
2018-09-01T20:54:54.138Z,1.17
2018-09-01T20:57:22.746Z,1.10
2018-09-01T20:59:52.104Z,1.60
2018-09-01T21:02:21.017Z,1.53
2018-09-01T21:04:53.332Z,1.60
2018-09-01T21:07:22.351Z,1.20
2018-09-01T21:09:52.021Z,1.47
2018-09-01T21:12:21.057Z,1.10
2018-09-01T21:18:06.054Z,1.40
2018-09-01T21:20:35.721Z,1.50
2018-09-01T21:23:04.473Z,1.30
2018-09-01T21:25:38.815Z,1.30
2018-09-01T21:28:07.767Z,1.27
2018-09-01T21:30:36.910Z,1.40
2018-09-01T21:33:06.365Z,1.03
2018-09-01T21:35:35.758Z,1.23
2018-09-01T21:38:06.038Z,1.50
2018-09-01T21:40:35.817Z,1.47
2018-09-01T21:43:05.022Z,1.10
2018-09-01T21:45:34.058Z,1.40
2018-09-01T21:48:05.845Z,1.20
2018-09-01T21:50:34.848Z,1.30
2018-09-01T21:53:04.089Z,1.20
2018-09-01T21:55:32.625Z,1.20
2018-09-01T21:58:01.170Z,1.47
2018-09-01T22:00:30.125Z,1.23
2018-09-01T22:03:00.903Z,1.20
2018-09-01T22:05:30.191Z,1.43
2018-09-01T22:08:13.703Z,1.23
2018-09-01T22:10:43.165Z,1.10
2018-09-01T22:13:12.477Z,1.30
2018-09-01T22:15:41.617Z,1.30
2018-09-01T22:18:11.883Z,1.23
2018-09-01T22:20:41.255Z,1.50
2018-09-01T22:23:10.012Z,1.30
2018-09-01T22:25:39.599Z,1.07
2018-09-01T22:28:08.524Z,1.47
2018-09-01T22:30:37.061Z,1.30
2018-09-01T22:33:06.507Z,1.50
2018-09-01T22:35:35.490Z,1.33
2018-09-01T22:38:05.355Z,1.27
2018-09-01T22:40:34.075Z,1.33
2018-09-01T22:43:03.036Z,1.50
2018-09-01T22:45:31.862Z,1.00
2018-09-01T22:48:01.123Z,1.20
2018-09-01T22:50:30.094Z,1.47
2018-09-01T22:52:58.658Z,1.40
2018-09-01T22:55:28.122Z,1.07
2018-09-01T22:57:57.499Z,1.23
2018-09-01T23:00:27.261Z,1.27
2018-09-01T23:02:56.550Z,1.63
2018-09-01T23:05:25.293Z,1.60
2018-09-01T23:07:53.839Z,1.37
2018-09-01T23:10:29.859Z,1.40
2018-09-01T23:12:58.914Z,1.37
2018-09-01T23:15:27.432Z,1.53
2018-09-01T23:17:56.215Z,1.10
2018-09-01T23:20:24.723Z,1.70
2018-09-01T23:22:54.348Z,1.20
2018-09-01T23:25:23.553Z,1.67
2018-09-01T23:27:52.422Z,1.67
2018-09-01T23:30:21.614Z,1.37
2018-09-01T23:32:50.492Z,1.33
2018-09-01T23:35:19.391Z,1.53
2018-09-01T23:37:49.427Z,1.63
2018-09-01T23:40:18.286Z,1.73
2018-09-01T23:42:58.677Z,1.40
2018-09-01T23:45:27.173Z,1.53
2018-09-01T23:47:55.769Z,1.43
2018-09-01T23:50:24.286Z,1.30
2018-09-01T23:52:52.800Z,1.67
2018-09-01T23:55:21.313Z,1.53
2018-09-01T23:57:49.860Z,1.30
